Aviation Digital Data Service (ADDS)

Output produced by METARs form (2015 UTC 08 February 2023)
found at http://aviationweather.gov/metar/data/
 
METAR text: KJOT 081955Z AUTO 13005KT 10SM CLR 06/00 A3019 RMK AO2 T00561001
Conditions at: KJOT (JOLIET , IL, US) observed 1955 UTC 08 February 2023
Temperature: 5.6°C (42°F)
Dewpoint: -0.1°C (32°F) [RH = 67%]
Pressure (altimeter): 30.19 inches Hg (1022.4 mb)
Winds: from the SE (130 degrees) at 6 MPH (5 knots; 2.6 m/s)
Visibility: 10 or more miles (16+ km)
Ceiling: at least 12,000 feet AGL
Clouds: sky clear below 12,000 feet AGL
Weather: automated observation with no human augmentation;
there may or may not be significant weather present at this time